Witch Wells, Arizona
Current Conditions -  °F | °C
As of 4:54 AM on Friday 28 Nov 2014 (Local Time) from KSJN Reporting Station
Clear Clear  
Wind Chill: 20°   Ceiling: Unl
Heat Index: 27°   Visibility: 10mi
Dew Point: 14°   Wind: 6mph
Humidity: 58%   Direction: 170°S
Pressure: 30.26"   Gusts: NA
Location:  34.4981°N, 109.241°W
Report Text: KSJN 281154Z AUTO 17005KT 10SM CLR M03/M10 A3026 RMK AO2 SLP223 T10281100 10028 21039 58008
Loading
Personal Weather Stations






























Interactive Weather Map New forecast layout! Learn more

10-Day Weather Forecast

Advertisements
Track Severe Weather on mobile